createdAt,value
2023-05-03T00:00:51.194Z,1.23
2023-05-03T00:01:52.248Z,1.37
2023-05-03T00:02:52.265Z,1.47
2023-05-03T00:03:52.270Z,1.11
2023-05-03T00:04:52.317Z,1.04
2023-05-03T00:05:52.284Z,1.64
2023-05-03T00:06:52.400Z,1.57
2023-05-03T00:07:52.327Z,1.62
2023-05-03T00:08:52.332Z,1.44
2023-05-03T00:09:51.354Z,1.47
2023-05-03T00:10:51.395Z,1.63
2023-05-03T00:11:51.390Z,1.22
2023-05-03T00:12:52.433Z,1.42
2023-05-03T00:13:52.462Z,1.26
2023-05-03T00:14:52.504Z,1.54
2023-05-03T00:15:52.517Z,1.72
2023-05-03T00:16:52.562Z,1.57
2023-05-03T00:17:52.665Z,1.39
2023-05-03T00:18:52.582Z,1.29
2023-05-03T00:19:51.656Z,1.42
2023-05-03T00:20:52.625Z,1.48
2023-05-03T00:21:51.660Z,1.33
2023-05-03T00:22:52.671Z,1.61
2023-05-03T00:23:52.723Z,1.31
2023-05-03T00:24:52.725Z,1.53
2023-05-03T00:25:52.728Z,1.81
2023-05-03T00:26:52.749Z,1.50
2023-05-03T00:27:52.759Z,1.61
2023-05-03T00:28:51.805Z,1.29
2023-05-03T00:29:52.825Z,1.47
2023-05-03T00:30:51.859Z,1.34
2023-05-03T00:31:51.886Z,1.25
2023-05-03T00:32:52.902Z,1.38
2023-05-03T00:33:51.922Z,1.05
2023-05-03T00:34:52.917Z,1.28
2023-05-03T00:35:52.927Z,1.52
2023-05-03T00:36:53.010Z,1.52
2023-05-03T00:37:53.022Z,1.29
2023-05-03T00:38:53.021Z,1.66
2023-05-03T00:39:52.096Z,1.56
2023-05-03T00:40:52.089Z,1.26
2023-05-03T00:41:53.076Z,1.23
2023-05-03T00:42:52.127Z,1.31
2023-05-03T00:43:53.146Z,1.24
2023-05-03T00:44:53.333Z,1.78
2023-05-03T00:45:55.284Z,1.14
2023-05-03T00:46:53.225Z,1.37
2023-05-03T00:47:52.170Z,1.51
2023-05-03T00:48:52.145Z,1.58
2023-05-03T00:49:53.179Z,1.65
2023-05-03T00:50:53.118Z,1.45
2023-05-03T00:51:52.119Z,1.51
2023-05-03T00:52:53.115Z,2.03
2023-05-03T00:53:52.116Z,1.57
2023-05-03T00:54:53.134Z,1.39
2023-05-03T00:55:52.124Z,1.34
2023-05-03T00:56:53.128Z,1.37
2023-05-03T00:57:52.101Z,1.44
2023-05-03T00:58:53.069Z,1.92
2023-05-03T00:59:52.084Z,1.20
2023-05-03T01:00:53.065Z,1.06
2023-05-03T01:01:53.151Z,1.18
2023-05-03T01:02:52.118Z,1.46
2023-05-03T01:03:52.269Z,1.55
2023-05-03T01:04:53.120Z,1.56
2023-05-03T01:05:52.157Z,1.04
2023-05-03T01:06:52.375Z,1.44
2023-05-03T01:07:52.222Z,1.70
2023-05-03T01:08:52.205Z,1.31
2023-05-03T01:09:52.223Z,1.94
2023-05-03T01:10:52.233Z,1.14
2023-05-03T01:11:53.278Z,1.37
2023-05-03T01:12:53.328Z,1.38
2023-05-03T01:13:53.339Z,1.63
2023-05-03T01:14:53.478Z,1.72
2023-05-03T01:15:53.402Z,1.51
2023-05-03T01:16:53.364Z,1.41
2023-05-03T01:17:53.504Z,1.31
2023-05-03T01:18:53.499Z,1.31
2023-05-03T01:19:53.515Z,1.38
2023-05-03T01:20:52.506Z,1.46
2023-05-03T01:21:53.540Z,1.44
2023-05-03T01:22:52.589Z,1.38
2023-05-03T01:23:52.633Z,1.51
2023-05-03T01:24:52.614Z,1.54
2023-05-03T01:25:53.649Z,1.40
2023-05-03T01:26:53.667Z,1.54
2023-05-03T01:27:52.715Z,1.61
2023-05-03T01:28:53.751Z,1.15
2023-05-03T01:29:52.760Z,1.34
2023-05-03T01:30:53.852Z,1.38
2023-05-03T01:31:53.831Z,1.38
2023-05-03T01:32:52.848Z,1.93
2023-05-03T01:33:53.828Z,1.41
2023-05-03T01:34:53.887Z,1.48
2023-05-03T01:35:53.904Z,1.12
2023-05-03T01:36:52.924Z,1.08
2023-05-03T01:37:53.953Z,1.09
2023-05-03T01:38:52.958Z,1.44
2023-05-03T01:39:53.997Z,1.49
2023-05-03T01:40:53.016Z,1.50
2023-05-03T01:41:54.058Z,1.73
2023-05-03T01:42:54.047Z,1.33
2023-05-03T01:43:54.170Z,1.22
2023-05-03T01:44:53.135Z,1.48
2023-05-03T01:45:53.203Z,1.26
2023-05-03T01:46:54.171Z,1.23
2023-05-03T01:47:53.316Z,1.74
2023-05-03T01:48:54.234Z,1.16
2023-05-03T01:49:54.376Z,1.38
2023-05-03T01:50:54.333Z,1.47
2023-05-03T01:51:54.339Z,1.26
2023-05-03T01:52:54.357Z,1.67
2023-05-03T01:53:54.408Z,1.42
2023-05-03T01:54:54.469Z,1.14
2023-05-03T01:55:54.529Z,1.19
2023-05-03T01:56:54.482Z,1.14
2023-05-03T01:57:54.550Z,1.22
2023-05-03T01:58:54.538Z,1.27
2023-05-03T01:59:53.591Z,1.69
2023-05-03T02:00:54.666Z,1.60
2023-05-03T02:01:54.613Z,1.66
2023-05-03T02:02:54.689Z,1.44
2023-05-03T02:03:54.743Z,1.35
2023-05-03T02:04:54.939Z,1.33
2023-05-03T02:05:53.763Z,1.36
2023-05-03T02:06:54.754Z,1.78
2023-05-03T02:07:54.781Z,1.37
2023-05-03T02:08:54.823Z,1.31
2023-05-03T02:09:54.887Z,1.41
2023-05-03T02:10:54.881Z,1.34
2023-05-03T02:11:53.884Z,1.39
2023-05-03T02:12:53.915Z,1.40
2023-05-03T02:13:53.974Z,1.51
2023-05-03T02:14:54.979Z,1.28
2023-05-03T02:15:54.041Z,1.15
2023-05-03T02:16:55.130Z,1.45
2023-05-03T02:17:54.227Z,1.29
2023-05-03T02:18:54.084Z,1.39
2023-05-03T02:19:55.125Z,1.44
2023-05-03T02:20:55.167Z,1.22
2023-05-03T02:21:54.184Z,1.67
2023-05-03T02:22:54.221Z,1.49
2023-05-03T02:23:55.261Z,1.56
2023-05-03T02:24:54.287Z,1.15
2023-05-03T02:25:55.311Z,1.80
2023-05-03T02:26:54.351Z,1.33
2023-05-03T02:27:55.383Z,1.30
2023-05-03T02:28:55.398Z,1.46
2023-05-03T02:29:54.498Z,1.27
2023-05-03T02:30:55.509Z,1.31
2023-05-03T02:31:55.528Z,1.51
2023-05-03T02:32:55.560Z,1.28
2023-05-03T02:33:54.570Z,1.18
2023-05-03T02:34:55.622Z,1.10
2023-05-03T02:35:54.640Z,1.23
2023-05-03T02:36:54.643Z,1.18
2023-05-03T02:37:54.658Z,1.70
2023-05-03T02:38:55.732Z,1.43
2023-05-03T02:39:55.707Z,1.44
2023-05-03T02:40:55.779Z,1.49
2023-05-03T02:41:55.809Z,1.35
2023-05-03T02:42:55.850Z,1.44
2023-05-03T02:43:54.890Z,1.07
2023-05-03T02:44:55.895Z,1.33
2023-05-03T02:45:55.962Z,1.04
2023-05-03T02:46:56.046Z,1.59
2023-05-03T02:47:56.039Z,1.14
2023-05-03T02:48:55.040Z,1.42
2023-05-03T02:49:56.057Z,1.50
2023-05-03T02:50:55.123Z,1.43
2023-05-03T02:51:56.141Z,1.62
2023-05-03T02:52:55.189Z,1.58
2023-05-03T02:53:55.177Z,1.19
2023-05-03T02:54:55.193Z,1.32
2023-05-03T02:55:56.252Z,1.53
2023-05-03T02:56:55.272Z,1.13
2023-05-03T02:57:56.305Z,1.42
2023-05-03T02:58:56.358Z,1.35
2023-05-03T02:59:56.398Z,1.25
2023-05-03T03:00:55.388Z,1.49
2023-05-03T03:01:55.487Z,1.41
2023-05-03T03:02:55.564Z,1.02
2023-05-03T03:03:55.756Z,1.06
2023-05-03T03:04:55.533Z,1.28
2023-05-03T03:05:56.549Z,1.26
2023-05-03T03:06:56.610Z,1.10
2023-05-03T03:07:55.655Z,1.42
2023-05-03T03:08:56.671Z,1.21
2023-05-03T03:09:56.706Z,1.36
2023-05-03T03:10:56.767Z,1.36
2023-05-03T03:11:55.804Z,1.51
2023-05-03T03:12:56.849Z,1.19
2023-05-03T03:13:55.903Z,1.34
2023-05-03T03:14:56.903Z,1.43
2023-05-03T03:15:55.992Z,1.28
2023-05-03T03:16:56.974Z,1.11
2023-05-03T03:17:57.027Z,1.26
2023-05-03T03:18:57.047Z,1.44
2023-05-03T03:19:57.126Z,1.11
2023-05-03T03:20:56.130Z,1.21
2023-05-03T03:21:56.157Z,1.80
2023-05-03T03:22:57.220Z,1.27
2023-05-03T03:23:57.227Z,1.43
2023-05-03T03:24:57.289Z,1.01
2023-05-03T03:25:57.346Z,1.36
2023-05-03T03:26:56.402Z,1.34
2023-05-03T03:27:57.457Z,1.47
2023-05-03T03:28:57.508Z,1.54
2023-05-03T03:29:56.519Z,1.56
2023-05-03T03:30:57.571Z,1.21
2023-05-03T03:31:56.706Z,1.30
2023-05-03T03:32:56.655Z,1.27
2023-05-03T03:33:56.666Z,1.40
2023-05-03T03:34:57.713Z,1.24
2023-05-03T03:35:56.777Z,1.40
2023-05-03T03:36:56.827Z,1.30
2023-05-03T03:37:57.854Z,1.71
2023-05-03T03:38:57.897Z,1.30
2023-05-03T03:39:57.926Z,1.35
2023-05-03T03:40:57.008Z,1.43
2023-05-03T03:41:58.013Z,1.26
2023-05-03T03:42:57.096Z,1.22
2023-05-03T03:43:58.108Z,1.38
2023-05-03T03:44:58.174Z,1.37
2023-05-03T03:45:58.165Z,1.54
2023-05-03T03:46:58.239Z,1.21
2023-05-03T03:47:57.286Z,1.34
2023-05-03T03:48:58.299Z,1.17
2023-05-03T03:49:58.356Z,1.48
2023-05-03T03:50:58.364Z,1.44
2023-05-03T03:51:58.433Z,1.26
2023-05-03T03:52:57.427Z,1.12
2023-05-03T03:53:58.501Z,1.31
2023-05-03T03:54:58.511Z,1.37
2023-05-03T03:55:57.515Z,1.40
2023-05-03T03:56:58.640Z,1.17
2023-05-03T03:57:57.615Z,1.38
2023-05-03T03:58:57.652Z,1.07
2023-05-03T03:59:57.700Z,1.51
2023-05-03T04:00:58.766Z,1.62
2023-05-03T04:01:58.817Z,1.25
2023-05-03T04:02:58.930Z,1.43
2023-05-03T04:03:58.955Z,1.28
2023-05-03T04:04:58.920Z,1.45
2023-05-03T04:05:58.915Z,1.33
2023-05-03T04:06:58.984Z,1.58
2023-05-03T04:07:59.013Z,1.23
2023-05-03T04:08:59.020Z,1.30
2023-05-03T04:09:59.075Z,1.40
2023-05-03T04:10:59.124Z,1.38
2023-05-03T04:11:59.158Z,1.61
2023-05-03T04:12:59.237Z,1.30
2023-05-03T04:13:58.231Z,1.27
2023-05-03T04:14:59.279Z,1.30
2023-05-03T04:15:59.346Z,1.29
2023-05-03T04:16:58.401Z,1.37
2023-05-03T04:17:58.438Z,1.38
2023-05-03T04:18:58.432Z,1.47
2023-05-03T04:19:59.499Z,1.28
2023-05-03T04:20:59.523Z,1.41
2023-05-03T04:21:59.620Z,1.26
2023-05-03T04:22:58.616Z,1.41
2023-05-03T04:23:59.665Z,1.32
2023-05-03T04:24:59.680Z,1.49
2023-05-03T04:25:58.738Z,1.19
2023-05-03T04:26:59.773Z,1.45
2023-05-03T04:27:59.839Z,1.25
2023-05-03T04:28:58.854Z,1.57
2023-05-03T04:29:58.936Z,1.22
2023-05-03T04:31:00.000Z,1.45
2023-05-03T04:32:00.096Z,1.64
2023-05-03T04:32:59.072Z,1.21
2023-05-03T04:34:00.108Z,1.62
2023-05-03T04:34:59.108Z,1.40
2023-05-03T04:35:59.166Z,1.35
2023-05-03T04:37:00.245Z,1.18
2023-05-03T04:37:59.323Z,1.40
2023-05-03T04:39:00.313Z,1.28
2023-05-03T04:40:00.436Z,1.44
2023-05-03T04:40:59.382Z,1.10
2023-05-03T04:42:00.418Z,1.43
2023-05-03T04:42:59.469Z,1.49
2023-05-03T04:44:00.509Z,1.65
2023-05-03T04:45:00.604Z,1.40
2023-05-03T04:46:00.638Z,1.09
2023-05-03T04:46:59.625Z,1.67
2023-05-03T04:47:59.708Z,1.40
2023-05-03T04:49:00.700Z,1.39
2023-05-03T04:49:59.844Z,1.47
2023-05-03T04:50:59.782Z,1.49
2023-05-03T04:52:00.819Z,1.35
2023-05-03T04:53:00.848Z,1.48
2023-05-03T04:54:00.880Z,1.15
2023-05-03T04:55:00.933Z,1.40
2023-05-03T04:56:00.985Z,1.42
2023-05-03T04:57:00.044Z,1.46
2023-05-03T04:58:00.150Z,1.55
2023-05-03T04:59:01.105Z,1.32
2023-05-03T05:00:01.431Z,1.40
2023-05-03T05:01:01.193Z,1.51
2023-05-03T05:02:01.232Z,1.08
2023-05-03T05:03:01.351Z,1.19
2023-05-03T05:04:01.427Z,1.34
2023-05-03T05:05:01.354Z,0.96
2023-05-03T05:06:01.705Z,1.54
2023-05-03T05:07:00.450Z,1.41
2023-05-03T05:08:00.488Z,1.35
2023-05-03T05:09:00.850Z,1.24
2023-05-03T05:10:01.719Z,1.51
2023-05-03T05:11:01.608Z,1.20
2023-05-03T05:12:01.807Z,1.32
2023-05-03T05:13:01.901Z,1.33
2023-05-03T05:14:01.970Z,1.44
2023-05-03T05:15:01.840Z,1.40
2023-05-03T05:16:02.153Z,1.45
2023-05-03T05:17:02.000Z,1.28
2023-05-03T05:18:00.918Z,1.16
2023-05-03T05:19:00.925Z,1.34
2023-05-03T05:20:02.057Z,1.32
2023-05-03T05:21:01.017Z,1.38
2023-05-03T05:22:02.018Z,1.05
2023-05-03T05:23:02.059Z,1.28
2023-05-03T05:24:01.038Z,1.15
2023-05-03T05:25:01.988Z,1.36
2023-05-03T05:26:02.020Z,1.33
2023-05-03T05:27:02.125Z,1.06
2023-05-03T05:28:03.946Z,1.44
2023-05-03T05:29:01.109Z,1.66
2023-05-03T05:30:01.284Z,1.75
2023-05-03T05:31:02.900Z,1.58
2023-05-03T05:32:02.258Z,0.91
2023-05-03T05:33:02.483Z,1.32
2023-05-03T05:34:01.036Z,1.48
2023-05-03T05:35:02.580Z,1.18
2023-05-03T05:36:04.395Z,1.54
2023-05-03T05:37:02.358Z,1.67
2023-05-03T05:38:03.006Z,1.31
2023-05-03T05:39:02.360Z,1.40
2023-05-03T05:40:01.925Z,1.57
2023-05-03T05:41:03.512Z,1.39
2023-05-03T05:42:01.401Z,1.91
2023-05-03T05:43:01.219Z,1.83
2023-05-03T05:44:01.289Z,1.95
2023-05-03T05:45:02.243Z,2.15
2023-05-03T05:46:01.205Z,2.71
2023-05-03T05:47:01.391Z,2.68
2023-05-03T05:48:02.256Z,2.49
2023-05-03T05:49:01.317Z,2.55
2023-05-03T05:50:03.586Z,2.62
2023-05-03T05:51:02.164Z,2.82
2023-05-03T05:52:02.241Z,2.76
2023-05-03T05:53:02.189Z,3.90
2023-05-03T05:54:02.245Z,3.24
2023-05-03T05:55:02.239Z,2.75
2023-05-03T05:56:02.120Z,3.48
2023-05-03T05:57:02.276Z,3.88
2023-05-03T05:58:01.148Z,3.45
2023-05-03T05:59:01.132Z,4.22
2023-05-03T06:00:01.535Z,3.46
2023-05-03T06:01:01.300Z,3.48
2023-05-03T06:02:01.167Z,3.41
2023-05-03T06:03:01.449Z,3.63
2023-05-03T06:04:02.140Z,4.28
2023-05-03T06:05:02.122Z,3.72
2023-05-03T06:06:02.106Z,3.59
2023-05-03T06:07:02.089Z,3.86
2023-05-03T06:08:01.056Z,3.66
2023-05-03T06:09:04.706Z,4.13
2023-05-03T06:10:02.254Z,3.56
2023-05-03T06:11:01.074Z,3.37
2023-05-03T06:12:03.014Z,3.77
2023-05-03T06:13:01.018Z,3.77
2023-05-03T06:14:02.091Z,3.63
2023-05-03T06:15:03.158Z,4.08
2023-05-03T06:16:01.271Z,3.63
2023-05-03T06:17:02.324Z,4.08
2023-05-03T06:18:01.891Z,3.40
2023-05-03T06:19:02.588Z,3.69
2023-05-03T06:20:02.673Z,3.85
2023-05-03T06:21:02.975Z,3.89
2023-05-03T06:22:02.360Z,3.50
2023-05-03T06:23:02.403Z,3.33
2023-05-03T06:24:02.318Z,3.46
2023-05-03T06:25:01.455Z,4.08
2023-05-03T06:26:02.389Z,3.43
2023-05-03T06:27:01.452Z,3.85
2023-05-03T06:28:01.970Z,3.74
2023-05-03T06:29:01.417Z,3.52
2023-05-03T06:30:02.681Z,3.71
2023-05-03T06:31:02.457Z,3.12
2023-05-03T06:32:01.535Z,3.52
2023-05-03T06:33:02.556Z,4.60
2023-05-03T06:34:02.849Z,4.08
2023-05-03T06:35:08.494Z,3.65
2023-05-03T06:36:02.492Z,2.94
2023-05-03T06:37:02.493Z,3.47
2023-05-03T06:38:02.469Z,3.62
2023-05-03T06:39:02.457Z,4.31
2023-05-03T06:40:02.642Z,3.12
2023-05-03T06:41:01.448Z,3.57
2023-05-03T06:42:02.453Z,3.63
2023-05-03T06:43:02.455Z,3.56
2023-05-03T06:44:02.426Z,3.43
2023-05-03T06:45:01.506Z,3.87
2023-05-03T06:46:02.450Z,3.24
2023-05-03T06:47:02.549Z,3.85
2023-05-03T06:48:02.571Z,3.25
2023-05-03T06:49:01.447Z,3.06
2023-05-03T06:50:01.529Z,3.77
2023-05-03T06:51:02.382Z,3.25
2023-05-03T06:52:02.373Z,3.59
2023-05-03T06:53:02.397Z,3.52
2023-05-03T06:54:02.352Z,3.16
2023-05-03T06:55:02.367Z,3.36
2023-05-03T06:56:02.326Z,3.71
2023-05-03T06:57:02.357Z,3.89
2023-05-03T06:58:02.398Z,3.27
2023-05-03T06:59:01.342Z,3.70
2023-05-03T07:00:02.579Z,3.14
2023-05-03T07:01:01.301Z,3.40
2023-05-03T07:02:02.329Z,3.35
2023-05-03T07:03:01.327Z,3.77
2023-05-03T07:04:02.484Z,2.85
2023-05-03T07:05:01.277Z,3.29
2023-05-03T07:06:02.282Z,3.49
2023-05-03T07:07:02.311Z,3.58
2023-05-03T07:08:02.253Z,3.29
2023-05-03T07:09:01.238Z,3.47
2023-05-03T07:10:02.597Z,2.97
2023-05-03T07:11:02.233Z,2.95
2023-05-03T07:12:01.207Z,3.26
2023-05-03T07:13:02.291Z,3.01
2023-05-03T07:14:02.193Z,2.79
2023-05-03T07:15:02.222Z,3.17
2023-05-03T07:16:03.696Z,3.04
2023-05-03T07:17:02.381Z,3.07
2023-05-03T07:18:02.405Z,2.57
2023-05-03T07:19:02.409Z,2.28
2023-05-03T07:20:02.636Z,3.10
2023-05-03T07:21:02.414Z,2.65
2023-05-03T07:22:01.430Z,2.86
2023-05-03T07:23:02.433Z,2.79
2023-05-03T07:24:02.446Z,2.44
2023-05-03T07:25:01.465Z,2.71
2023-05-03T07:26:02.460Z,2.66
2023-05-03T07:27:02.490Z,2.88
2023-05-03T07:28:02.511Z,3.11
2023-05-03T07:29:02.548Z,2.69
2023-05-03T07:30:02.739Z,2.56
2023-05-03T07:31:02.609Z,2.36
2023-05-03T07:32:01.645Z,3.14
2023-05-03T07:33:02.824Z,2.51
2023-05-03T07:34:02.775Z,2.48
2023-05-03T07:35:01.780Z,3.17
2023-05-03T07:36:02.893Z,2.39
2023-05-03T07:37:02.864Z,2.57
2023-05-03T07:38:02.923Z,2.88
2023-05-03T07:39:02.972Z,2.56
2023-05-03T07:40:03.246Z,3.02
2023-05-03T07:41:03.071Z,2.63
2023-05-03T07:42:02.100Z,2.25
2023-05-03T07:43:02.153Z,2.76
2023-05-03T07:44:03.213Z,2.30
2023-05-03T07:45:03.293Z,2.50
2023-05-03T07:46:03.296Z,3.08
2023-05-03T07:47:03.323Z,2.82
2023-05-03T07:48:02.436Z,3.08
2023-05-03T07:49:03.421Z,2.74
2023-05-03T07:50:03.638Z,3.31
2023-05-03T07:51:03.443Z,3.38
2023-05-03T07:52:03.501Z,3.33
2023-05-03T07:53:03.916Z,3.58
2023-05-03T07:54:02.537Z,2.93
2023-05-03T07:55:02.550Z,2.91
2023-05-03T07:56:02.556Z,3.46
2023-05-03T07:57:02.593Z,3.13
2023-05-03T07:58:02.610Z,2.86
2023-05-03T07:59:09.384Z,2.58
2023-05-03T08:00:03.882Z,2.52
2023-05-03T08:01:03.629Z,2.99
2023-05-03T08:02:03.695Z,3.10
2023-05-03T08:03:02.756Z,2.81
2023-05-03T08:04:02.901Z,3.38
2023-05-03T08:05:02.769Z,3.04
2023-05-03T08:06:02.625Z,2.62
2023-05-03T08:07:03.616Z,2.91
2023-05-03T08:08:02.799Z,2.91
2023-05-03T08:09:03.580Z,2.73
2023-05-03T08:10:03.772Z,2.19
2023-05-03T08:11:03.643Z,2.50
2023-05-03T08:12:02.659Z,2.55
2023-05-03T08:13:02.712Z,2.27
2023-05-03T08:14:03.744Z,2.02
2023-05-03T08:15:02.814Z,2.56
2023-05-03T08:16:04.442Z,2.45
2023-05-03T08:17:03.836Z,2.76
2023-05-03T08:18:03.959Z,2.31
2023-05-03T08:19:02.892Z,2.93
2023-05-03T08:20:03.257Z,2.66
2023-05-03T08:21:02.956Z,3.43
2023-05-03T08:22:03.989Z,3.30
2023-05-03T08:23:04.045Z,4.43
2023-05-03T08:24:04.081Z,3.22
2023-05-03T08:25:04.065Z,4.41
2023-05-03T08:26:03.067Z,3.96
2023-05-03T08:27:04.069Z,3.51
2023-05-03T08:28:04.085Z,4.35
2023-05-03T08:29:03.129Z,4.03
2023-05-03T08:30:04.444Z,3.93
2023-05-03T08:31:03.448Z,4.16
2023-05-03T08:32:03.233Z,4.15
2023-05-03T08:33:04.306Z,3.39
2023-05-03T08:34:04.301Z,3.53
2023-05-03T08:35:04.349Z,3.54
2023-05-03T08:36:04.354Z,3.61
2023-05-03T08:37:04.387Z,3.74
2023-05-03T08:38:04.411Z,3.90
2023-05-03T08:39:03.452Z,3.42
2023-05-03T08:40:04.735Z,3.13
2023-05-03T08:41:03.527Z,3.54
2023-05-03T08:42:04.581Z,3.04
2023-05-03T08:43:04.952Z,3.75
2023-05-03T08:44:04.657Z,3.55
2023-05-03T08:45:03.744Z,3.41
2023-05-03T08:46:04.770Z,3.45
2023-05-03T08:47:04.803Z,3.74
2023-05-03T08:48:04.955Z,3.66
2023-05-03T08:49:04.943Z,3.69
2023-05-03T08:50:05.038Z,3.72
2023-05-03T08:51:04.870Z,3.14
2023-05-03T08:52:04.910Z,3.56
2023-05-03T08:53:04.961Z,3.61
2023-05-03T08:54:04.995Z,3.80
2023-05-03T08:55:05.039Z,3.85
2023-05-03T08:56:05.304Z,4.04
2023-05-03T08:57:04.145Z,4.17
2023-05-03T08:58:05.450Z,3.67
2023-05-03T08:59:04.204Z,3.70
2023-05-03T09:00:04.599Z,3.38
2023-05-03T09:01:05.229Z,3.33
2023-05-03T09:02:05.312Z,3.26
2023-05-03T09:03:04.380Z,3.44
2023-05-03T09:04:05.524Z,3.62
2023-05-03T09:05:05.530Z,3.46
2023-05-03T09:06:04.507Z,3.68
2023-05-03T09:07:04.508Z,3.30
2023-05-03T09:08:05.566Z,3.90
2023-05-03T09:09:04.622Z,3.28
2023-05-03T09:10:04.919Z,4.58
2023-05-03T09:11:05.718Z,3.28
2023-05-03T09:12:04.798Z,3.45
2023-05-03T09:13:05.799Z,4.10
2023-05-03T09:14:04.826Z,3.02
2023-05-03T09:15:05.877Z,3.30
2023-05-03T09:16:05.954Z,3.45
2023-05-03T09:17:04.969Z,3.34
2023-05-03T09:18:06.148Z,3.70
2023-05-03T09:19:05.082Z,3.26
2023-05-03T09:20:05.424Z,3.12
2023-05-03T09:21:06.184Z,3.44
2023-05-03T09:22:06.233Z,3.43
2023-05-03T09:23:05.269Z,3.89
2023-05-03T09:24:06.316Z,3.67
2023-05-03T09:25:05.362Z,3.28
2023-05-03T09:26:06.407Z,3.05
2023-05-03T09:27:06.714Z,2.87
2023-05-03T09:28:06.522Z,3.39
2023-05-03T09:29:06.574Z,3.42
2023-05-03T09:30:05.864Z,3.10
2023-05-03T09:31:05.660Z,3.52
2023-05-03T09:32:05.967Z,3.87
2023-05-03T09:33:06.783Z,2.80
2023-05-03T09:34:06.788Z,3.01
2023-05-03T09:35:06.838Z,3.30
2023-05-03T09:36:06.872Z,2.79
2023-05-03T09:37:05.896Z,3.70
2023-05-03T09:38:06.932Z,2.86
2023-05-03T09:39:06.993Z,2.85
2023-05-03T09:40:07.012Z,2.64
2023-05-03T09:41:07.061Z,3.05
2023-05-03T09:42:06.102Z,4.25
2023-05-03T09:43:07.159Z,3.77
2023-05-03T09:44:07.153Z,4.08
2023-05-03T09:45:06.226Z,3.20
2023-05-03T09:46:07.325Z,3.26
2023-05-03T09:47:06.289Z,4.37
2023-05-03T09:48:06.745Z,4.03
2023-05-03T09:49:06.478Z,3.70
2023-05-03T09:50:06.427Z,3.97
2023-05-03T09:51:06.440Z,3.88
2023-05-03T09:52:06.444Z,3.61
2023-05-03T09:53:06.474Z,3.82
2023-05-03T09:54:07.931Z,4.23
2023-05-03T09:55:07.554Z,4.14
2023-05-03T09:56:07.598Z,4.20
2023-05-03T09:57:06.617Z,3.93
2023-05-03T09:58:06.639Z,4.04
2023-05-03T09:59:06.733Z,4.62
2023-05-03T10:00:06.727Z,4.26
2023-05-03T10:01:06.828Z,3.78
2023-05-03T10:02:08.045Z,4.54
2023-05-03T10:03:06.864Z,4.80
2023-05-03T10:04:06.912Z,3.90
2023-05-03T10:05:08.004Z,4.29
2023-05-03T10:06:07.014Z,3.57
2023-05-03T10:07:07.984Z,4.64
2023-05-03T10:08:08.007Z,3.82
2023-05-03T10:09:07.042Z,4.44
2023-05-03T10:10:07.073Z,4.10
2023-05-03T10:11:08.107Z,3.94
2023-05-03T10:12:07.211Z,3.75
2023-05-03T10:13:08.984Z,3.91
2023-05-03T10:14:08.140Z,3.70
2023-05-03T10:15:08.146Z,3.99
2023-05-03T10:16:08.139Z,3.65
2023-05-03T10:17:08.499Z,3.94
2023-05-03T10:18:07.123Z,3.79
2023-05-03T10:19:08.093Z,4.14
2023-05-03T10:20:07.106Z,3.66
2023-05-03T10:21:08.102Z,3.79
2023-05-03T10:22:08.115Z,3.58
2023-05-03T10:23:08.074Z,3.75
2023-05-03T10:24:07.062Z,3.92
2023-05-03T10:25:07.094Z,3.83
2023-05-03T10:26:08.054Z,3.47
2023-05-03T10:27:07.053Z,3.57
2023-05-03T10:28:08.044Z,3.92
2023-05-03T10:29:08.039Z,2.77
2023-05-03T10:30:08.029Z,3.16
2023-05-03T10:31:08.086Z,3.75
2023-05-03T10:32:07.021Z,3.18
2023-05-03T10:33:08.040Z,3.10
2023-05-03T10:34:06.988Z,3.81
2023-05-03T10:35:07.198Z,3.58
2023-05-03T10:36:07.992Z,4.05
2023-05-03T10:37:07.965Z,3.89
2023-05-03T10:38:06.962Z,3.36
2023-05-03T10:39:07.960Z,3.70
2023-05-03T10:40:07.958Z,3.59
2023-05-03T10:41:07.944Z,3.36
2023-05-03T10:42:07.989Z,3.62
2023-05-03T10:43:06.910Z,3.51
2023-05-03T10:44:06.922Z,3.64
2023-05-03T10:45:07.039Z,3.71
2023-05-03T10:46:07.938Z,3.90
2023-05-03T10:47:07.971Z,4.27
2023-05-03T10:48:07.919Z,3.72
2023-05-03T10:49:07.893Z,3.80
2023-05-03T10:50:07.943Z,4.34
2023-05-03T10:51:07.995Z,4.06
2023-05-03T10:52:08.020Z,3.53
2023-05-03T10:53:07.063Z,4.24
2023-05-03T10:54:08.086Z,4.17
2023-05-03T10:55:07.107Z,3.83
2023-05-03T10:56:08.219Z,4.05
2023-05-03T10:57:07.130Z,3.76
2023-05-03T10:58:08.160Z,3.51
2023-05-03T10:59:08.172Z,3.59
2023-05-03T11:00:08.180Z,3.22
2023-05-03T11:01:08.299Z,3.49
2023-05-03T11:02:07.246Z,2.69
2023-05-03T11:03:08.414Z,3.65
2023-05-03T11:04:08.285Z,3.76
2023-05-03T11:05:08.830Z,3.18
2023-05-03T11:06:07.295Z,3.23
2023-05-03T11:07:08.287Z,3.14
2023-05-03T11:08:08.308Z,3.34
2023-05-03T11:09:08.369Z,3.52
2023-05-03T11:10:07.351Z,3.24
2023-05-03T11:11:07.405Z,2.94
2023-05-03T11:12:08.483Z,2.41
2023-05-03T11:13:07.434Z,4.06
2023-05-03T11:14:08.540Z,3.79
2023-05-03T11:15:07.525Z,3.68
2023-05-03T11:16:07.625Z,3.14
2023-05-03T11:17:08.660Z,3.54
2023-05-03T11:18:08.749Z,3.10
2023-05-03T11:19:08.734Z,3.33
2023-05-03T11:20:08.812Z,3.04
2023-05-03T11:21:07.811Z,3.12
2023-05-03T11:22:08.841Z,3.83
2023-05-03T11:23:07.890Z,3.61
2023-05-03T11:24:08.907Z,3.66
2023-05-03T11:25:08.951Z,3.27
2023-05-03T11:26:08.985Z,3.22
2023-05-03T11:27:09.017Z,3.45
2023-05-03T11:28:09.056Z,3.66
2023-05-03T11:29:09.064Z,3.13
2023-05-03T11:30:09.095Z,3.11
2023-05-03T11:31:09.123Z,3.79
2023-05-03T11:32:08.201Z,3.16
2023-05-03T11:33:08.235Z,2.83
2023-05-03T11:34:09.203Z,3.34
2023-05-03T11:35:09.486Z,3.20
2023-05-03T11:36:08.311Z,3.21
2023-05-03T11:37:08.308Z,3.11
2023-05-03T11:38:09.361Z,3.31
2023-05-03T11:39:08.504Z,3.85
2023-05-03T11:40:08.443Z,3.34
2023-05-03T11:41:08.470Z,2.54
2023-05-03T11:42:08.532Z,3.52
2023-05-03T11:43:09.658Z,3.43
2023-05-03T11:45:09.925Z,2.66
2023-05-03T11:46:09.686Z,3.33
2023-05-03T11:47:09.762Z,3.48
2023-05-03T11:48:09.581Z,3.13
2023-05-03T11:49:08.623Z,2.82
2023-05-03T11:50:09.523Z,3.48
2023-05-03T11:51:08.577Z,3.09
2023-05-03T11:52:09.585Z,3.56
2023-05-03T11:53:08.492Z,2.85
2023-05-03T11:54:20.995Z,3.30
2023-05-03T11:55:09.492Z,3.31
2023-05-03T11:56:08.474Z,2.84
2023-05-03T11:57:09.468Z,3.63
2023-05-03T11:58:08.472Z,4.32
2023-05-03T11:59:09.462Z,3.33
2023-05-03T12:00:08.463Z,3.43
2023-05-03T12:01:08.459Z,3.06
2023-05-03T12:02:09.737Z,2.96
2023-05-03T12:03:09.794Z,3.28
2023-05-03T12:04:09.614Z,3.00
2023-05-03T12:05:08.902Z,3.43
2023-05-03T12:07:08.832Z,2.92
2023-05-03T12:08:10.462Z,2.95
2023-05-03T12:09:10.129Z,2.82
2023-05-03T12:10:15.827Z,3.06
2023-05-03T12:11:10.238Z,3.55
2023-05-03T12:12:10.938Z,3.82
2023-05-03T12:13:09.236Z,3.22
2023-05-03T12:14:08.485Z,3.38
2023-05-03T12:15:08.566Z,3.39
2023-05-03T12:16:13.319Z,3.26
2023-05-03T12:17:11.363Z,2.91
2023-05-03T12:18:09.992Z,2.60
2023-05-03T12:19:09.084Z,3.53
2023-05-03T12:20:42.078Z,3.22
2023-05-03T12:22:24.773Z,3.02
2023-05-03T12:23:10.464Z,3.42
2023-05-03T12:24:10.925Z,3.21
2023-05-03T12:25:09.691Z,2.97
2023-05-03T12:26:09.841Z,3.22
2023-05-03T12:27:09.561Z,3.30
2023-05-03T12:29:09.016Z,3.59
2023-05-03T12:30:09.658Z,3.36
2023-05-03T12:31:10.787Z,3.34
2023-05-03T12:32:11.933Z,2.89
2023-05-03T12:33:10.112Z,2.83
2023-05-03T12:34:31.912Z,2.77
2023-05-03T12:35:11.676Z,3.00
2023-05-03T12:36:10.019Z,3.04
2023-05-03T12:37:11.965Z,3.01
2023-05-03T12:38:09.730Z,3.34
2023-05-03T12:39:10.475Z,3.22
2023-05-03T12:40:31.499Z,2.90
2023-05-03T12:41:09.590Z,3.14
2023-05-03T12:42:09.796Z,2.90
2023-05-03T12:43:08.563Z,2.96
2023-05-03T12:44:10.777Z,3.39
2023-05-03T12:45:12.540Z,3.41
2023-05-03T12:46:29.185Z,3.15
2023-05-03T12:47:10.181Z,2.93
2023-05-03T12:48:08.622Z,3.03
2023-05-03T12:49:09.219Z,2.74
2023-05-03T12:50:12.480Z,3.08
2023-05-03T12:51:19.481Z,2.61
2023-05-03T12:53:09.924Z,3.06
2023-05-03T12:54:10.558Z,2.78
2023-05-03T12:55:10.837Z,2.81
2023-05-03T12:56:13.425Z,2.52
2023-05-03T12:57:09.305Z,3.17
2023-05-03T13:00:14.660Z,2.83
2023-05-03T13:03:18.280Z,3.04
2023-05-03T13:03:20.790Z,2.87
2023-05-03T13:04:43.686Z,2.69
2023-05-03T13:05:14.277Z,3.63
2023-05-03T13:06:13.461Z,3.00
2023-05-03T13:07:13.680Z,2.78
2023-05-03T13:08:10.075Z,2.79
2023-05-03T13:09:08.726Z,3.04
2023-05-03T13:11:08.730Z,2.91
2023-05-03T13:12:08.645Z,2.73
2023-05-03T13:13:08.558Z,2.64
2023-05-03T13:14:08.543Z,3.22
2023-05-03T13:15:08.686Z,3.56
2023-05-03T13:16:09.586Z,3.33
2023-05-03T13:17:09.498Z,3.59
2023-05-03T13:18:08.525Z,3.21
2023-05-03T13:19:09.491Z,3.51
2023-05-03T13:20:08.493Z,3.04
2023-05-03T13:21:09.475Z,3.48
2023-05-03T13:22:08.456Z,3.37
2023-05-03T13:23:09.456Z,3.05
2023-05-03T13:24:08.442Z,3.11
2023-05-03T13:25:09.442Z,3.21
2023-05-03T13:26:09.440Z,3.16
2023-05-03T13:27:09.433Z,3.31
2023-05-03T13:28:09.405Z,2.74